sensor_id;sensor_type;location;lat;lon;timestamp;pressure;altitude;pressure_sealevel;temperature;humidity
5691;BME280;2870;42.680;23.364;2023-03-03T00:01:29;95203.44;;;5.30;91.92
5691;BME280;2870;42.680;23.364;2023-03-03T00:03:57;95209.25;;;5.08;92.94
5691;BME280;2870;42.680;23.364;2023-03-03T00:06:25;95198.28;;;5.16;93.07
5691;BME280;2870;42.680;23.364;2023-03-03T00:08:53;95193.88;;;5.01;93.68
5691;BME280;2870;42.680;23.364;2023-03-03T00:11:20;95197.38;;;5.08;93.00
5691;BME280;2870;42.680;23.364;2023-03-03T00:13:48;95186.34;;;5.21;93.09
5691;BME280;2870;42.680;23.364;2023-03-03T00:16:21;95180.44;;;5.30;92.56
5691;BME280;2870;42.680;23.364;2023-03-03T00:18:49;95188.25;;;5.31;92.17
5691;BME280;2870;42.680;23.364;2023-03-03T00:21:27;95188.56;;;5.03;93.50
5691;BME280;2870;42.680;23.364;2023-03-03T00:24:02;95193.41;;;4.97;94.40
5691;BME280;2870;42.680;23.364;2023-03-03T00:26:39;95184.66;;;4.88;94.76
5691;BME280;2870;42.680;23.364;2023-03-03T00:29:26;95184.44;;;5.10;94.78
5691;BME280;2870;42.680;23.364;2023-03-03T00:31:54;95194.63;;;5.02;94.79
5691;BME280;2870;42.680;23.364;2023-03-03T00:34:24;95190.38;;;5.01;94.86
5691;BME280;2870;42.680;23.364;2023-03-03T00:36:53;95180.75;;;4.77;95.69
5691;BME280;2870;42.680;23.364;2023-03-03T00:39:26;95176.75;;;5.22;93.57
5691;BME280;2870;42.680;23.364;2023-03-03T00:41:55;95136.25;;;5.02;93.02
5691;BME280;2870;42.680;23.364;2023-03-03T00:44:39;95170.97;;;5.39;92.55
5691;BME280;2870;42.680;23.364;2023-03-03T00:47:26;95157.50;;;5.43;92.22
5691;BME280;2870;42.680;23.364;2023-03-03T00:49:54;95159.00;;;5.25;92.54
5691;BME280;2870;42.680;23.364;2023-03-03T00:52:23;95158.66;;;5.34;92.17
5691;BME280;2870;42.680;23.364;2023-03-03T00:54:54;95153.31;;;5.55;92.24
5691;BME280;2870;42.680;23.364;2023-03-03T00:57:21;95153.56;;;5.57;91.15
5691;BME280;2870;42.680;23.364;2023-03-03T00:59:48;95145.91;;;5.39;91.91
5691;BME280;2870;42.680;23.364;2023-03-03T01:02:15;95140.00;;;5.48;91.77
5691;BME280;2870;42.680;23.364;2023-03-03T01:04:43;95126.75;;;5.16;92.86
5691;BME280;2870;42.680;23.364;2023-03-03T01:07:13;95136.31;;;5.40;92.38
5691;BME280;2870;42.680;23.364;2023-03-03T01:09:40;95136.94;;;5.08;93.36
5691;BME280;2870;42.680;23.364;2023-03-03T01:12:08;95128.81;;;5.35;92.89
5691;BME280;2870;42.680;23.364;2023-03-03T01:14:36;95128.13;;;5.28;92.45
5691;BME280;2870;42.680;23.364;2023-03-03T01:17:03;95118.31;;;5.03;93.81
5691;BME280;2870;42.680;23.364;2023-03-03T01:19:31;95123.59;;;5.25;93.59
5691;BME280;2870;42.680;23.364;2023-03-03T01:21:58;95133.28;;;5.38;93.01
5691;BME280;2870;42.680;23.364;2023-03-03T01:24:25;95133.13;;;5.11;93.90
5691;BME280;2870;42.680;23.364;2023-03-03T01:26:52;95129.00;;;5.18;94.02
5691;BME280;2870;42.680;23.364;2023-03-03T01:29:20;95126.22;;;5.18;94.21
5691;BME280;2870;42.680;23.364;2023-03-03T01:31:47;95125.00;;;5.13;93.81
5691;BME280;2870;42.680;23.364;2023-03-03T01:34:13;95123.59;;;5.25;93.63
5691;BME280;2870;42.680;23.364;2023-03-03T01:36:40;95122.22;;;5.13;93.95
5691;BME280;2870;42.680;23.364;2023-03-03T01:39:09;95118.91;;;4.96;94.61
5691;BME280;2870;42.680;23.364;2023-03-03T01:41:38;95117.41;;;4.95;94.37
5691;BME280;2870;42.680;23.364;2023-03-03T01:44:05;95120.28;;;4.84;95.08
5691;BME280;2870;42.680;23.364;2023-03-03T01:46:41;95122.50;;;4.91;95.68
5691;BME280;2870;42.680;23.364;2023-03-03T01:49:14;95117.28;;;4.82;95.69
5691;BME280;2870;42.680;23.364;2023-03-03T01:51:47;95112.78;;;4.78;95.56
5691;BME280;2870;42.680;23.364;2023-03-03T01:54:18;95111.59;;;4.68;95.86
5691;BME280;2870;42.680;23.364;2023-03-03T01:56:48;95112.34;;;4.69;95.97
5691;BME280;2870;42.680;23.364;2023-03-03T01:59:17;95119.25;;;4.62;96.14
5691;BME280;2870;42.680;23.364;2023-03-03T02:01:48;95104.38;;;4.60;96.51
5691;BME280;2870;42.680;23.364;2023-03-03T02:04:16;95107.81;;;4.71;96.34
5691;BME280;2870;42.680;23.364;2023-03-03T02:06:47;95108.59;;;4.66;95.89
5691;BME280;2870;42.680;23.364;2023-03-03T02:09:22;95046.97;;;4.43;94.63
5691;BME280;2870;42.680;23.364;2023-03-03T02:11:51;95110.69;;;4.85;94.95
5691;BME280;2870;42.680;23.364;2023-03-03T02:14:19;95104.63;;;4.62;95.28
5691;BME280;2870;42.680;23.364;2023-03-03T02:16:47;95115.31;;;4.52;95.86
5691;BME280;2870;42.680;23.364;2023-03-03T02:19:20;95115.94;;;4.64;95.72
5691;BME280;2870;42.680;23.364;2023-03-03T02:21:51;95114.38;;;4.68;95.04
5691;BME280;2870;42.680;23.364;2023-03-03T02:24:23;95116.31;;;4.79;94.35
5691;BME280;2870;42.680;23.364;2023-03-03T02:26:52;95098.25;;;4.67;94.66
5691;BME280;2870;42.680;23.364;2023-03-03T02:29:19;95109.31;;;4.72;94.63
5691;BME280;2870;42.680;23.364;2023-03-03T02:31:46;95112.41;;;4.88;94.37
5691;BME280;2870;42.680;23.364;2023-03-03T02:34:13;95117.16;;;4.93;94.21
5691;BME280;2870;42.680;23.364;2023-03-03T02:36:40;95111.88;;;4.65;95.18
5691;BME280;2870;42.680;23.364;2023-03-03T02:39:10;95112.13;;;4.91;94.71
5691;BME280;2870;42.680;23.364;2023-03-03T02:41:42;95101.75;;;4.92;94.36
5691;BME280;2870;42.680;23.364;2023-03-03T02:44:12;95107.03;;;4.95;94.08
5691;BME280;2870;42.680;23.364;2023-03-03T02:46:42;95104.88;;;5.07;93.33
5691;BME280;2870;42.680;23.364;2023-03-03T02:49:11;95107.78;;;4.96;93.89
5691;BME280;2870;42.680;23.364;2023-03-03T02:51:38;95107.03;;;4.95;93.93
5691;BME280;2870;42.680;23.364;2023-03-03T02:54:06;95089.03;;;4.77;94.24
5691;BME280;2870;42.680;23.364;2023-03-03T02:56:34;95112.59;;;4.95;94.02
5691;BME280;2870;42.680;23.364;2023-03-03T02:59:02;95105.34;;;4.87;94.33
5691;BME280;2870;42.680;23.364;2023-03-03T03:01:30;95109.56;;;4.93;93.48
5691;BME280;2870;42.680;23.364;2023-03-03T03:04:02;95105.69;;;5.02;93.61
5691;BME280;2870;42.680;23.364;2023-03-03T03:06:29;95106.75;;;4.74;94.46
5691;BME280;2870;42.680;23.364;2023-03-03T03:08:56;95095.41;;;4.72;95.00
5691;BME280;2870;42.680;23.364;2023-03-03T03:11:23;95102.81;;;4.89;94.54
5691;BME280;2870;42.680;23.364;2023-03-03T03:13:49;95098.75;;;4.90;94.62
5691;BME280;2870;42.680;23.364;2023-03-03T03:16:17;95102.13;;;4.58;95.62
5691;BME280;2870;42.680;23.364;2023-03-03T03:18:45;95093.16;;;4.71;95.45
5691;BME280;2870;42.680;23.364;2023-03-03T03:21:13;95101.19;;;4.74;96.01
5691;BME280;2870;42.680;23.364;2023-03-03T03:23:39;95104.72;;;4.99;94.69
5691;BME280;2870;42.680;23.364;2023-03-03T03:26:07;95094.78;;;5.04;94.27
5691;BME280;2870;42.680;23.364;2023-03-03T03:28:34;95093.81;;;5.20;93.12
5691;BME280;2870;42.680;23.364;2023-03-03T03:31:01;95098.72;;;5.14;93.41
5691;BME280;2870;42.680;23.364;2023-03-03T03:33:28;95099.09;;;5.24;93.10
5691;BME280;2870;42.680;23.364;2023-03-03T03:35:59;95089.28;;;4.98;94.13
5691;BME280;2870;42.680;23.364;2023-03-03T03:38:27;95090.50;;;5.03;94.72
5691;BME280;2870;42.680;23.364;2023-03-03T03:40:56;95091.94;;;5.10;94.25
5691;BME280;2870;42.680;23.364;2023-03-03T03:43:23;95084.84;;;4.90;95.44
5691;BME280;2870;42.680;23.364;2023-03-03T03:45:50;95082.06;;;4.90;95.26
5691;BME280;2870;42.680;23.364;2023-03-03T03:48:17;95084.44;;;4.80;96.09
5691;BME280;2870;42.680;23.364;2023-03-03T03:50:45;95074.97;;;4.70;96.78
5691;BME280;2870;42.680;23.364;2023-03-03T03:53:13;95081.66;;;4.80;97.43
5691;BME280;2870;42.680;23.364;2023-03-03T03:55:40;95082.47;;;5.18;95.89
5691;BME280;2870;42.680;23.364;2023-03-03T03:58:07;95080.94;;;4.98;96.87
5691;BME280;2870;42.680;23.364;2023-03-03T04:00:34;95077.53;;;4.68;98.65
5691;BME280;2870;42.680;23.364;2023-03-03T04:03:01;95080.03;;;4.71;99.92
5691;BME280;2870;42.680;23.364;2023-03-03T04:05:27;95071.94;;;4.92;99.55
5691;BME280;2870;42.680;23.364;2023-03-03T04:07:54;95070.72;;;4.88;100.00
5691;BME280;2870;42.680;23.364;2023-03-03T04:10:22;95068.44;;;4.67;99.96
5691;BME280;2870;42.680;23.364;2023-03-03T04:12:49;95074.06;;;4.62;100.00
5691;BME280;2870;42.680;23.364;2023-03-03T04:15:16;95063.22;;;4.58;100.00
5691;BME280;2870;42.680;23.364;2023-03-03T04:17:43;95069.03;;;4.60;100.00
5691;BME280;2870;42.680;23.364;2023-03-03T04:20:12;95072.38;;;4.53;100.00
5691;BME280;2870;42.680;23.364;2023-03-03T04:22:40;95063.41;;;4.66;100.00
5691;BME280;2870;42.680;23.364;2023-03-03T04:25:10;95073.28;;;4.37;100.00
5691;BME280;2870;42.680;23.364;2023-03-03T04:27:39;95041.72;;;4.40;100.00
5691;BME280;2870;42.680;23.364;2023-03-03T04:30:08;95065.91;;;4.45;100.00
5691;BME280;2870;42.680;23.364;2023-03-03T04:32:36;95069.38;;;4.51;100.00
5691;BME280;2870;42.680;23.364;2023-03-03T04:35:03;95061.72;;;4.57;100.00
5691;BME280;2870;42.680;23.364;2023-03-03T04:37:30;95066.16;;;4.41;100.00
5691;BME280;2870;42.680;23.364;2023-03-03T04:39:56;95074.69;;;4.49;100.00
5691;BME280;2870;42.680;23.364;2023-03-03T04:42:23;95058.66;;;4.36;100.00
5691;BME280;2870;42.680;23.364;2023-03-03T04:44:53;95062.91;;;4.43;100.00
5691;BME280;2870;42.680;23.364;2023-03-03T04:47:20;95070.38;;;4.48;100.00
5691;BME280;2870;42.680;23.364;2023-03-03T04:49:47;95061.78;;;4.51;100.00
5691;BME280;2870;42.680;23.364;2023-03-03T04:52:14;95065.66;;;4.67;100.00
5691;BME280;2870;42.680;23.364;2023-03-03T04:54:41;95063.91;;;4.64;100.00
5691;BME280;2870;42.680;23.364;2023-03-03T04:57:08;95065.38;;;4.71;100.00
5691;BME280;2870;42.680;23.364;2023-03-03T04:59:35;95068.31;;;4.78;100.00
5691;BME280;2870;42.680;23.364;2023-03-03T05:02:03;95071.81;;;4.60;100.00
5691;BME280;2870;42.680;23.364;2023-03-03T05:04:30;95069.00;;;4.36;100.00
5691;BME280;2870;42.680;23.364;2023-03-03T05:06:58;95072.47;;;4.42;100.00
5691;BME280;2870;42.680;23.364;2023-03-03T05:09:24;95078.50;;;4.70;100.00
5691;BME280;2870;42.680;23.364;2023-03-03T05:11:51;95074.13;;;4.56;100.00
5691;BME280;2870;42.680;23.364;2023-03-03T05:14:19;95076.66;;;4.54;100.00
5691;BME280;2870;42.680;23.364;2023-03-03T05:16:46;95070.53;;;4.61;100.00
5691;BME280;2870;42.680;23.364;2023-03-03T05:19:14;95073.31;;;4.61;100.00
5691;BME280;2870;42.680;23.364;2023-03-03T05:21:40;95081.38;;;4.59;100.00
5691;BME280;2870;42.680;23.364;2023-03-03T05:24:08;95084.56;;;4.69;100.00
5691;BME280;2870;42.680;23.364;2023-03-03T05:26:35;95085.09;;;4.67;100.00
5691;BME280;2870;42.680;23.364;2023-03-03T05:29:01;95083.81;;;4.68;100.00
5691;BME280;2870;42.680;23.364;2023-03-03T05:31:28;95080.63;;;4.83;100.00
5691;BME280;2870;42.680;23.364;2023-03-03T05:33:55;95079.53;;;4.67;100.00
5691;BME280;2870;42.680;23.364;2023-03-03T05:36:23;95085.91;;;4.62;100.00
5691;BME280;2870;42.680;23.364;2023-03-03T05:38:50;95083.69;;;4.79;100.00
5691;BME280;2870;42.680;23.364;2023-03-03T05:41:17;95087.88;;;4.67;100.00
5691;BME280;2870;42.680;23.364;2023-03-03T05:43:44;95082.31;;;4.67;100.00
5691;BME280;2870;42.680;23.364;2023-03-03T05:46:10;95086.06;;;4.70;100.00
5691;BME280;2870;42.680;23.364;2023-03-03T05:48:37;95092.38;;;4.70;100.00
5691;BME280;2870;42.680;23.364;2023-03-03T05:51:05;95097.38;;;4.77;100.00
5691;BME280;2870;42.680;23.364;2023-03-03T05:53:33;95065.59;;;4.73;100.00
5691;BME280;2870;42.680;23.364;2023-03-03T05:56:00;95041.19;;;4.66;100.00
5691;BME280;2870;42.680;23.364;2023-03-03T05:58:27;95089.91;;;5.10;100.00
5691;BME280;2870;42.680;23.364;2023-03-03T06:00:54;95096.25;;;4.86;100.00
5691;BME280;2870;42.680;23.364;2023-03-03T06:03:21;95089.28;;;4.98;100.00
5691;BME280;2870;42.680;23.364;2023-03-03T06:05:48;95090.38;;;5.14;100.00
5691;BME280;2870;42.680;23.364;2023-03-03T06:08:15;95027.50;;;4.68;100.00
5691;BME280;2870;42.680;23.364;2023-03-03T06:10:43;95092.41;;;5.14;100.00
5691;BME280;2870;42.680;23.364;2023-03-03T06:13:10;95090.97;;;5.07;100.00
5691;BME280;2870;42.680;23.364;2023-03-03T06:15:37;95096.31;;;5.05;100.00
5691;BME280;2870;42.680;23.364;2023-03-03T06:18:04;95095.09;;;5.19;100.00
5691;BME280;2870;42.680;23.364;2023-03-03T06:20:31;95095.03;;;5.06;100.00
5691;BME280;2870;42.680;23.364;2023-03-03T06:22:58;95089.09;;;5.15;100.00
5691;BME280;2870;42.680;23.364;2023-03-03T06:25:24;95101.75;;;5.35;100.00
5691;BME280;2870;42.680;23.364;2023-03-03T06:27:53;95107.22;;;5.22;100.00
5691;BME280;2870;42.680;23.364;2023-03-03T06:30:20;95106.69;;;5.23;100.00
5691;BME280;2870;42.680;23.364;2023-03-03T06:32:46;95096.31;;;5.05;100.00
5691;BME280;2870;42.680;23.364;2023-03-03T06:35:13;95096.38;;;5.18;100.00
5691;BME280;2870;42.680;23.364;2023-03-03T06:37:40;95095.91;;;5.14;100.00
5691;BME280;2870;42.680;23.364;2023-03-03T06:40:08;95101.16;;;4.99;100.00
5691;BME280;2870;42.680;23.364;2023-03-03T06:42:35;95106.50;;;4.97;100.00
5691;BME280;2870;42.680;23.364;2023-03-03T06:45:04;95103.72;;;4.97;100.00
5691;BME280;2870;42.680;23.364;2023-03-03T06:47:31;95107.91;;;4.85;100.00
5691;BME280;2870;42.680;23.364;2023-03-03T06:49:58;95106.59;;;5.10;100.00
5691;BME280;2870;42.680;23.364;2023-03-03T06:52:26;95106.75;;;5.18;100.00
5691;BME280;2870;42.680;23.364;2023-03-03T06:54:55;95114.50;;;5.44;100.00
5691;BME280;2870;42.680;23.364;2023-03-03T06:57:26;95111.88;;;5.32;100.00
5691;BME280;2870;42.680;23.364;2023-03-03T06:59:56;95111.44;;;5.47;99.70
5691;BME280;2870;42.680;23.364;2023-03-03T07:02:24;95115.34;;;5.57;99.69
5691;BME280;2870;42.680;23.364;2023-03-03T07:04:52;95109.00;;;5.76;99.60
5691;BME280;2870;42.680;23.364;2023-03-03T07:07:23;95114.72;;;5.83;98.69
5691;BME280;2870;42.680;23.364;2023-03-03T07:09:51;95110.97;;;5.81;98.07
5691;BME280;2870;42.680;23.364;2023-03-03T07:12:19;95113.00;;;5.80;98.02
5691;BME280;2870;42.680;23.364;2023-03-03T07:14:49;95114.28;;;5.61;97.88
5691;BME280;2870;42.680;23.364;2023-03-03T07:17:21;95115.03;;;5.61;98.93
5691;BME280;2870;42.680;23.364;2023-03-03T07:19:51;95103.75;;;5.53;98.99
5691;BME280;2870;42.680;23.364;2023-03-03T07:22:19;95087.66;;;5.27;98.88
5691;BME280;2870;42.680;23.364;2023-03-03T07:24:48;95110.22;;;5.80;99.16
5691;BME280;2870;42.680;23.364;2023-03-03T07:27:20;95105.31;;;5.87;99.56
5691;BME280;2870;42.680;23.364;2023-03-03T07:29:49;95114.06;;;5.96;97.86
5691;BME280;2870;42.680;23.364;2023-03-03T07:32:26;95115.16;;;6.06;97.44
5691;BME280;2870;42.680;23.364;2023-03-03T07:34:55;95114.28;;;5.42;96.00
5691;BME280;2870;42.680;23.364;2023-03-03T07:37:28;95108.56;;;5.53;97.31
5691;BME280;2870;42.680;23.364;2023-03-03T07:39:56;95097.34;;;5.77;96.73
5691;BME280;2870;42.680;23.364;2023-03-03T07:42:25;95101.78;;;5.86;96.87
5691;BME280;2870;42.680;23.364;2023-03-03T07:44:54;95098.31;;;5.99;97.23
5691;BME280;2870;42.680;23.364;2023-03-03T07:47:24;95101.41;;;6.27;97.46
5691;BME280;2870;42.680;23.364;2023-03-03T07:49:54;95100.56;;;6.32;96.83
5691;BME280;2870;42.680;23.364;2023-03-03T07:52:30;95103.91;;;6.12;96.25
5691;BME280;2870;42.680;23.364;2023-03-03T07:54:59;95101.69;;;6.24;94.90
5691;BME280;2870;42.680;23.364;2023-03-03T07:57:34;95102.19;;;5.96;94.26
5691;BME280;2870;42.680;23.364;2023-03-03T08:02:53;95099.78;;;5.68;95.54
5691;BME280;2870;42.680;23.364;2023-03-03T08:05:29;95098.56;;;5.63;95.43
5691;BME280;2870;42.680;23.364;2023-03-03T08:08:09;95043.63;;;5.13;95.23
5691;BME280;2870;42.680;23.364;2023-03-03T08:10:41;95090.88;;;5.69;95.44
5691;BME280;2870;42.680;23.364;2023-03-03T08:13:16;95097.16;;;5.89;94.98
5691;BME280;2870;42.680;23.364;2023-03-03T08:15:44;95091.09;;;5.71;94.48
5691;BME280;2870;42.680;23.364;2023-03-03T08:18:23;95097.78;;;5.81;95.08
5691;BME280;2870;42.680;23.364;2023-03-03T08:20:54;95101.28;;;5.69;95.67
5691;BME280;2870;42.680;23.364;2023-03-03T08:23:21;95089.31;;;5.74;96.43
5691;BME280;2870;42.680;23.364;2023-03-03T08:25:50;95079.34;;;5.78;96.59
5691;BME280;2870;42.680;23.364;2023-03-03T08:28:18;95098.31;;;5.99;95.60
5691;BME280;2870;42.680;23.364;2023-03-03T08:30:45;95088.00;;;5.94;94.90
5691;BME280;2870;42.680;23.364;2023-03-03T08:33:13;95084.94;;;5.97;93.66
5691;BME280;2870;42.680;23.364;2023-03-03T08:35:40;95083.88;;;5.81;95.33
5691;BME280;2870;42.680;23.364;2023-03-03T08:38:09;95085.53;;;5.71;94.39
5691;BME280;2870;42.680;23.364;2023-03-03T08:40:36;95084.59;;;6.01;95.52
5691;BME280;2870;42.680;23.364;2023-03-03T08:43:04;95087.19;;;5.99;94.92
5691;BME280;2870;42.680;23.364;2023-03-03T08:45:31;95090.09;;;5.88;96.14
5691;BME280;2870;42.680;23.364;2023-03-03T08:47:58;95080.94;;;5.93;96.08
5691;BME280;2870;42.680;23.364;2023-03-03T08:50:26;95085.69;;;5.98;96.40
5691;BME280;2870;42.680;23.364;2023-03-03T08:52:53;95092.13;;;6.06;95.80
5691;BME280;2870;42.680;23.364;2023-03-03T08:55:21;95085.63;;;6.17;95.56
5691;BME280;2870;42.680;23.364;2023-03-03T08:57:48;95086.03;;;6.07;95.93
5691;BME280;2870;42.680;23.364;2023-03-03T09:00:16;95089.09;;;6.36;94.54
5691;BME280;2870;42.680;23.364;2023-03-03T09:02:43;95087.06;;;6.36;94.71
5691;BME280;2870;42.680;23.364;2023-03-03T09:05:10;95095.72;;;6.33;93.65
5691;BME280;2870;42.680;23.364;2023-03-03T09:07:37;95097.19;;;6.07;93.41
5691;BME280;2870;42.680;23.364;2023-03-03T09:10:05;95092.00;;;5.98;94.01
5691;BME280;2870;42.680;23.364;2023-03-03T09:12:35;95091.63;;;6.21;94.87
5691;BME280;2870;42.680;23.364;2023-03-03T09:15:14;95086.97;;;6.55;96.90
5691;BME280;2870;42.680;23.364;2023-03-03T09:17:41;95086.13;;;6.74;92.38
5691;BME280;2870;42.680;23.364;2023-03-03T09:20:34;95081.22;;;6.67;93.13
5691;BME280;2870;42.680;23.364;2023-03-03T09:23:24;95088.06;;;6.52;91.09
5691;BME280;2870;42.680;23.364;2023-03-03T09:25:53;95081.22;;;6.53;89.90
5691;BME280;2870;42.680;23.364;2023-03-03T09:28:24;95086.03;;;6.66;91.11
5691;BME280;2870;42.680;23.364;2023-03-03T09:30:53;95083.47;;;6.95;91.75
5691;BME280;2870;42.680;23.364;2023-03-03T09:33:26;95077.97;;;7.02;90.13
5691;BME280;2870;42.680;23.364;2023-03-03T09:36:00;95086.25;;;7.08;89.33
5691;BME280;2870;42.680;23.364;2023-03-03T09:38:30;95078.31;;;7.12;88.91
5691;BME280;2870;42.680;23.364;2023-03-03T09:41:34;95086.16;;;7.00;90.88
5691;BME280;2870;42.680;23.364;2023-03-03T09:47:27;95081.31;;;6.74;90.83
5691;BME280;2870;42.680;23.364;2023-03-03T09:50:09;95087.97;;;6.98;89.80
5691;BME280;2870;42.680;23.364;2023-03-03T09:52:44;95083.25;;;7.06;87.58
5691;BME280;2870;42.680;23.364;2023-03-03T09:55:27;95077.88;;;6.95;88.50
5691;BME280;2870;42.680;23.364;2023-03-03T09:58:19;95088.31;;;6.81;90.63
5691;BME280;2870;42.680;23.364;2023-03-03T10:00:57;95085.84;;;7.04;89.12
5691;BME280;2870;42.680;23.364;2023-03-03T10:03:57;95081.28;;;7.27;87.22
5691;BME280;2870;42.680;23.364;2023-03-03T10:06:33;95079.25;;;7.28;89.02
5691;BME280;2870;42.680;23.364;2023-03-03T10:09:23;95077.53;;;7.38;87.18
5691;BME280;2870;42.680;23.364;2023-03-03T10:11:59;95079.56;;;7.24;88.71
5691;BME280;2870;42.680;23.364;2023-03-03T10:14:48;95073.78;;;7.22;88.56
5691;BME280;2870;42.680;23.364;2023-03-03T10:17:27;95080.22;;;7.64;88.58
5691;BME280;2870;42.680;23.364;2023-03-03T10:20:08;95073.78;;;7.22;88.95
5691;BME280;2870;42.680;23.364;2023-03-03T10:22:47;95066.88;;;7.50;89.86
5691;BME280;2870;42.680;23.364;2023-03-03T10:25:25;95081.22;;;7.88;86.09
5691;BME280;2870;42.680;23.364;2023-03-03T10:28:09;95068.13;;;7.49;89.05
5691;BME280;2870;42.680;23.364;2023-03-03T10:30:47;95061.72;;;7.40;89.37
5691;BME280;2870;42.680;23.364;2023-03-03T10:33:24;95061.91;;;7.56;89.92
5691;BME280;2870;42.680;23.364;2023-03-03T10:36:11;95062.47;;;7.41;91.03
5691;BME280;2870;42.680;23.364;2023-03-03T10:38:54;95063.13;;;7.34;90.80
5691;BME280;2870;42.680;23.364;2023-03-03T10:41:37;95061.53;;;7.25;90.62
5691;BME280;2870;42.680;23.364;2023-03-03T10:44:26;95055.97;;;7.25;90.84
5691;BME280;2870;42.680;23.364;2023-03-03T10:49:55;95051.16;;;7.12;90.39
5691;BME280;2870;42.680;23.364;2023-03-03T10:52:31;95050.22;;;6.97;89.23
5691;BME280;2870;42.680;23.364;2023-03-03T10:55:22;95047.16;;;7.34;90.78
5691;BME280;2870;42.680;23.364;2023-03-03T10:58:03;95046.53;;;7.28;90.46
5691;BME280;2870;42.680;23.364;2023-03-03T11:00:39;95048.91;;;7.58;90.17
5691;BME280;2870;42.680;23.364;2023-03-03T11:06:13;95042.97;;;7.96;89.43
5691;BME280;2870;42.680;23.364;2023-03-03T11:08:48;95038.53;;;8.01;88.66
5691;BME280;2870;42.680;23.364;2023-03-03T11:11:22;95033.63;;;8.14;87.82
5691;BME280;2870;42.680;23.364;2023-03-03T11:13:55;95031.78;;;8.17;87.39
5691;BME280;2870;42.680;23.364;2023-03-03T11:16:33;95037.16;;;8.15;87.39
5691;BME280;2870;42.680;23.364;2023-03-03T11:19:20;95029.59;;;7.26;87.79
5691;BME280;2870;42.680;23.364;2023-03-03T11:21:59;95020.97;;;7.24;89.91
5691;BME280;2870;42.680;23.364;2023-03-03T11:24:46;95012.56;;;7.72;88.42
5691;BME280;2870;42.680;23.364;2023-03-03T11:27:25;95019.22;;;7.68;89.04
5691;BME280;2870;42.680;23.364;2023-03-03T11:30:06;95013.97;;;6.97;89.64
5691;BME280;2870;42.680;23.364;2023-03-03T11:32:42;95015.78;;;6.94;91.63
5691;BME280;2870;42.680;23.364;2023-03-03T11:35:23;95017.94;;;7.35;90.56
5691;BME280;2870;42.680;23.364;2023-03-03T11:38:02;95015.50;;;7.66;89.83
5691;BME280;2870;42.680;23.364;2023-03-03T11:40:40;95029.25;;;7.85;87.86
5691;BME280;2870;42.680;23.364;2023-03-03T11:43:13;95017.34;;;7.84;86.83
5691;BME280;2870;42.680;23.364;2023-03-03T11:45:44;95012.28;;;8.04;87.46
5691;BME280;2870;42.680;23.364;2023-03-03T11:48:17;95009.56;;;8.11;87.33
5691;BME280;2870;42.680;23.364;2023-03-03T11:50:53;95015.16;;;8.11;88.07
5691;BME280;2870;42.680;23.364;2023-03-03T11:53:33;95014.81;;;8.15;88.73
5691;BME280;2870;42.680;23.364;2023-03-03T11:56:09;95009.09;;;7.79;89.86
5691;BME280;2870;42.680;23.364;2023-03-03T11:58:43;95002.00;;;7.57;91.98
5691;BME280;2870;42.680;23.364;2023-03-03T12:01:17;95005.47;;;7.91;89.72
5691;BME280;2870;42.680;23.364;2023-03-03T12:03:48;95014.00;;;8.07;89.43
5691;BME280;2870;42.680;23.364;2023-03-03T12:06:23;94998.22;;;7.54;91.78
5691;BME280;2870;42.680;23.364;2023-03-03T12:09:08;95000.72;;;7.79;91.64
5691;BME280;2870;42.680;23.364;2023-03-03T12:11:47;95009.53;;;7.49;93.24
5691;BME280;2870;42.680;23.364;2023-03-03T12:14:36;95010.25;;;7.62;92.93
5691;BME280;2870;42.680;23.364;2023-03-03T12:17:13;95003.66;;;7.73;93.36
5691;BME280;2870;42.680;23.364;2023-03-03T12:19:49;95002.81;;;7.86;92.85
5691;BME280;2870;42.680;23.364;2023-03-03T12:22:31;95003.84;;;7.96;91.16
5691;BME280;2870;42.680;23.364;2023-03-03T12:25:16;94997.56;;;7.82;92.33
5691;BME280;2870;42.680;23.364;2023-03-03T12:27:49;95008.25;;;7.50;91.97
5691;BME280;2870;42.680;23.364;2023-03-03T12:30:26;95002.28;;;7.87;93.76
5691;BME280;2870;42.680;23.364;2023-03-03T12:33:13;95004.72;;;7.49;93.85
5691;BME280;2870;42.680;23.364;2023-03-03T12:35:47;95007.09;;;7.45;92.93
5691;BME280;2870;42.680;23.364;2023-03-03T12:38:24;95012.91;;;7.34;93.01
5691;BME280;2870;42.680;23.364;2023-03-03T12:41:00;95013.59;;;7.61;93.47
5691;BME280;2870;42.680;23.364;2023-03-03T12:43:38;95007.84;;;7.46;93.91
5691;BME280;2870;42.680;23.364;2023-03-03T12:46:17;95002.25;;;7.46;94.32
5691;BME280;2870;42.680;23.364;2023-03-03T12:48:46;95012.84;;;7.26;95.60
5691;BME280;2870;42.680;23.364;2023-03-03T12:51:26;95011.81;;;7.71;95.18
5691;BME280;2870;42.680;23.364;2023-03-03T12:54:13;95014.59;;;7.92;94.00
5691;BME280;2870;42.680;23.364;2023-03-03T12:56:48;95016.75;;;7.44;94.12
5691;BME280;2870;42.680;23.364;2023-03-03T12:59:24;95019.56;;;7.65;94.81
5691;BME280;2870;42.680;23.364;2023-03-03T13:02:18;95010.25;;;7.62;96.14
5691;BME280;2870;42.680;23.364;2023-03-03T13:04:52;95007.56;;;7.57;95.55
5691;BME280;2870;42.680;23.364;2023-03-03T13:07:27;95006.84;;;7.22;97.18
5691;BME280;2870;42.680;23.364;2023-03-03T13:10:07;95012.66;;;7.11;98.50
5691;BME280;2870;42.680;23.364;2023-03-03T13:12:42;95012.84;;;7.26;98.73
5691;BME280;2870;42.680;23.364;2023-03-03T13:15:14;95009.81;;;7.24;99.42
5691;BME280;2870;42.680;23.364;2023-03-03T13:17:52;95005.25;;;7.48;99.71
5691;BME280;2870;42.680;23.364;2023-03-03T13:20:29;95006.31;;;7.10;100.00
5691;BME280;2870;42.680;23.364;2023-03-03T13:23:06;94999.06;;;6.94;99.21
5691;BME280;2870;42.680;23.364;2023-03-03T13:25:52;95002.69;;;7.02;99.64
5691;BME280;2870;42.680;23.364;2023-03-03T13:28:29;95000.94;;;7.12;100.00
5691;BME280;2870;42.680;23.364;2023-03-03T13:31:02;95004.97;;;7.59;100.00
5691;BME280;2870;42.680;23.364;2023-03-03T13:33:33;94998.25;;;7.75;100.00
5691;BME280;2870;42.680;23.364;2023-03-03T13:36:02;95008.94;;;7.63;100.00
5691;BME280;2870;42.680;23.364;2023-03-03T13:38:33;95002.00;;;7.98;97.85
5691;BME280;2870;42.680;23.364;2023-03-03T13:41:06;95007.75;;;7.72;99.54
5691;BME280;2870;42.680;23.364;2023-03-03T13:43:43;94997.91;;;8.00;99.74
5691;BME280;2870;42.680;23.364;2023-03-03T13:46:16;95004.94;;;7.93;96.39
5691;BME280;2870;42.680;23.364;2023-03-03T13:48:56;94998.53;;;8.06;95.59
5691;BME280;2870;42.680;23.364;2023-03-03T13:51:31;94997.22;;;7.65;95.19
5691;BME280;2870;42.680;23.364;2023-03-03T13:54:11;94981.84;;;7.16;96.39
5691;BME280;2870;42.680;23.364;2023-03-03T13:57:10;94999.13;;;7.15;96.83